Eros — FAD6416 — position and weather

sailwx.info

Track history (hours):
 
Tides and Currents Weather Stations Pressure Air Temp Water Temp Dewpoint Dewpoint Depression Visibility Wind Speed Wind Dir Waves Ship Positions

Eros

Last reported at 2017-Sep-18 14:06 UTC. Time now 2017-Sep-21 05:27 UTC.
Position N 37°02' E 025°06'.

Length 15 m.

Type: Sailing vessel. MMSI: 227413960.

Date/timePositionNaut miles runAvg speedWind from/ knotsBaromVisibWave heightAir tempDewpointWater temp
2017-Sep-18 14:06N 37°02' E 025°06'0 2.3
2017-Sep-18 13:58N 37°02' E 025°06'0 0.0
2017-Sep-18 13:28N 37°02' E 025°06'0 0.0
2017-Sep-18 12:58N 37°02' E 025°06'0 0.0
2017-Sep-18 12:28N 37°02' E 025°06'0 0.0
2017-Sep-18 12:00N 37°02' E 025°06'3 5.5
2017-Sep-18 11:30N 37°05' E 025°05'4 7.8
2017-Sep-18 11:00N 37°07' E 025°01'4 8.0
2017-Sep-18 10:30N 37°10' E 024°58'2 4.1
2017-Sep-18 10:00N 37°12' E 024°57'2 4.4
2017-Sep-18 09:30N 37°14' E 024°57'3 5.5
2017-Sep-18 09:00N 37°17' E 024°56'2 5.0
2017-Sep-18 08:31N 37°19' E 024°55'2 4.7
2017-Sep-18 08:00N 37°21' E 024°53'2 4.0
2017-Sep-18 07:29N 37°22' E 024°52'1 0.1
2017-Sep-17 16:39N 37°24' E 024°52'1 7.6
2017-Sep-17 16:30N 37°24' E 024°50'4 7.9
2017-Sep-17 16:00N 37°25' E 024°46'  
2017-Sep-14 05:35N 37°01' E 025°06'0 3.7
2017-Sep-14 05:30N 37°02' E 025°06'1 1.5
2017-Sep-14 04:58N 37°03' E 025°05'0 0.0
2017-Sep-14 04:28N 37°03' E 025°05'0 0.0
2017-Sep-13 14:11N 37°03' E 025°05'0 0.7
2017-Sep-13 14:00N 37°02' E 025°05'1 1.1
2017-Sep-13 13:29N 37°03' E 025°05'0 0.0
2017-Sep-13 12:56N 37°03' E 025°05'0 0.0
2017-Sep-13 12:29N 37°03' E 025°05'0 0.1
2017-Sep-13 12:00N 37°03' E 025°05'11 7.1
2017-Sep-13 10:31N 37°12' E 025°12'0 7.1
2017-Sep-13 10:30N 37°12' E 025°12'3 6.6
2017-Sep-13 10:00N 37°15' E 025°14'3 5.3
2017-Sep-13 09:30N 37°18' E 025°15'3 5.7
2017-Sep-13 09:00N 37°20' E 025°16'3 5.5
2017-Sep-13 08:30N 37°23' E 025°17'3 5.5
2017-Sep-13 08:00N 37°26' E 025°18'2 0.1
2017-Sep-12 16:22N 37°27' E 025°20'0 0.9
2017-Sep-12 16:00N 37°27' E 025°19'2 3.4
2017-Sep-12 15:30N 37°26' E 025°18'1 0.4
2017-Sep-12 12:06N 37°25' E 025°19'0 0.0
2017-Sep-12 11:57N 37°25' E 025°19'3 5.0
2017-Sep-12 11:20N 37°25' E 025°16'1 1.8
2017-Sep-12 10:33N 37°24' E 025°16'0 0.1
2017-Sep-12 10:30N 37°24' E 025°16'0 0.4
2017-Sep-12 10:00N 37°24' E 025°16'0 0.1
2017-Sep-12 09:29N 37°24' E 025°16'0 0.4
2017-Sep-12 09:00N 37°24' E 025°16'2 5.0
2017-Sep-12 08:31N 37°22' E 025°14'5 9.7
2017-Sep-12 08:00N 37°24' E 025°09'9 0.5
2017-Sep-11 14:57N 37°26' E 024°58'3 5.4
2017-Sep-11 14:28N 37°24' E 024°59'3 5.3
2017-Sep-11 13:59N 37°23' E 024°56'4 7.8
2017-Sep-11 13:30N 37°22' E 024°51'2 1.0
2017-Sep-11 11:42N 37°23' E 024°52'2 6.8
2017-Sep-11 11:29N 37°23' E 024°50'4 7.9
2017-Sep-11 10:58N 37°24' E 024°45'  
2017-Sep-08 15:18N 37°30' E 024°44'2 7.6
2017-Sep-08 14:59N 37°30' E 024°47'  
Track history (hours):
 
Tides and Currents Weather Stations Pressure Air Temp Water Temp Dewpoint Dewpoint Depression Visibility Wind Speed Wind Dir Waves Ship Positions

Eros

Last reported at 2017-Sep-18 14:06 UTC. Time now 2017-Sep-21 05:27 UTC.
Position N 37°02' E 025°06'.

Length 15 m.

Type: Sailing vessel. MMSI: 227413960.

Date/timePositionNaut miles runAvg speedWind from/ knotsBaromVisibWave heightAir tempDewpointWater temp
2017-Sep-18 14:06N 37°02' E 025°06'0 2.3
2017-Sep-18 13:58N 37°02' E 025°06'0 0.0
2017-Sep-18 13:28N 37°02' E 025°06'0 0.0
2017-Sep-18 12:58N 37°02' E 025°06'0 0.0
2017-Sep-18 12:28N 37°02' E 025°06'0 0.0
2017-Sep-18 12:00N 37°02' E 025°06'3 5.5
2017-Sep-18 11:30N 37°05' E 025°05'4 7.8
2017-Sep-18 11:00N 37°07' E 025°01'4 8.0
2017-Sep-18 10:30N 37°10' E 024°58'2 4.1
2017-Sep-18 10:00N 37°12' E 024°57'2 4.4
2017-Sep-18 09:30N 37°14' E 024°57'3 5.5
2017-Sep-18 09:00N 37°17' E 024°56'2 5.0
2017-Sep-18 08:31N 37°19' E 024°55'2 4.7
2017-Sep-18 08:00N 37°21' E 024°53'2 4.0
2017-Sep-18 07:29N 37°22' E 024°52'1 0.1
2017-Sep-17 16:39N 37°24' E 024°52'1 7.6
2017-Sep-17 16:30N 37°24' E 024°50'4 7.9
2017-Sep-17 16:00N 37°25' E 024°46'  
2017-Sep-14 05:35N 37°01' E 025°06'0 3.7
2017-Sep-14 05:30N 37°02' E 025°06'1 1.5
2017-Sep-14 04:58N 37°03' E 025°05'0 0.0
2017-Sep-14 04:28N 37°03' E 025°05'0 0.0
2017-Sep-13 14:11N 37°03' E 025°05'0 0.7
2017-Sep-13 14:00N 37°02' E 025°05'1 1.1
2017-Sep-13 13:29N 37°03' E 025°05'0 0.0
2017-Sep-13 12:56N 37°03' E 025°05'0 0.0
2017-Sep-13 12:29N 37°03' E 025°05'0 0.1
2017-Sep-13 12:00N 37°03' E 025°05'11 7.1
2017-Sep-13 10:31N 37°12' E 025°12'0 7.1
2017-Sep-13 10:30N 37°12' E 025°12'3 6.6
2017-Sep-13 10:00N 37°15' E 025°14'3 5.3
2017-Sep-13 09:30N 37°18' E 025°15'3 5.7
2017-Sep-13 09:00N 37°20' E 025°16'3 5.5
2017-Sep-13 08:30N 37°23' E 025°17'3 5.5
2017-Sep-13 08:00N 37°26' E 025°18'2 0.1
2017-Sep-12 16:22N 37°27' E 025°20'0 0.9
2017-Sep-12 16:00N 37°27' E 025°19'2 3.4
2017-Sep-12 15:30N 37°26' E 025°18'1 0.4
2017-Sep-12 12:06N 37°25' E 025°19'0 0.0
2017-Sep-12 11:57N 37°25' E 025°19'3 5.0
2017-Sep-12 11:20N 37°25' E 025°16'1 1.8
2017-Sep-12 10:33N 37°24' E 025°16'0 0.1
2017-Sep-12 10:30N 37°24' E 025°16'0 0.4
2017-Sep-12 10:00N 37°24' E 025°16'0 0.1
2017-Sep-12 09:29N 37°24' E 025°16'0 0.4
2017-Sep-12 09:00N 37°24' E 025°16'2 5.0
2017-Sep-12 08:31N 37°22' E 025°14'5 9.7
2017-Sep-12 08:00N 37°24' E 025°09'9 0.5
2017-Sep-11 14:57N 37°26' E 024°58'3 5.4
2017-Sep-11 14:28N 37°24' E 024°59'3 5.3
2017-Sep-11 13:59N 37°23' E 024°56'4 7.8
2017-Sep-11 13:30N 37°22' E 024°51'2 1.0
2017-Sep-11 11:42N 37°23' E 024°52'2 6.8
2017-Sep-11 11:29N 37°23' E 024°50'4 7.9
2017-Sep-11 10:58N 37°24' E 024°45'  
2017-Sep-08 15:18N 37°30' E 024°44'2 7.6
2017-Sep-08 14:59N 37°30' E 024°47'  

Dump ship's entire track history